메인 페이지
METAR-TAF:

METAR-TAF

공항 :

새스커툰, 서스캐처원, 캐나다

위도: 52-10N, 경도: 106-41W, 고도: 501m

현재 날씨관측

예보는 40분 전, 01:00시(UTC)에 발표되었습니다.
북동6kt
온도 -18°C
습도 77%
기압 1022 hPa
시정: 24.1km
고도 8500ft 상공 흐림

METAR: CYXE 170100Z 04006KT 15SM OVC085 M18/M21 A3019 RMK AC8 SLP278

시각: 19:40 (01:40 UTC)

예보

예보는 2 시간 2분 전, 23:38시(UTC)에 발표되었습니다.
예보 대상 시간: 17일 00시부터 17일 24시까지 (UTC)
북동8kt
시정: 10km
고도 2000ft 상공 구름 조금
고도 9000ft 상공 흐림
일시적
17일 00시부터 17일 10시까지 (UTC)
고도 2000ft 상공 구름 많음
고도 9000ft 상공 흐림
17일 1000시부터 (UTC)
북북서8kt
시정: 10km
고도 2000ft 상공 구름 조금
고도 8000ft 상공 구름 많음
17일 1400시부터 (UTC)
북북서8kt
시정: 10km
고도 2000ft 상공 구름 조금

TAF: CYXE 162338Z 1700/1724 04008KT P6SM FEW020 OVC090 TEMPO 1700/1710 BKN020 OVC090 FM171000 34008KT P6SM FEW020 BKN080 FM171400 33008KT P6SM FEW020 RMK NXT FCST BY 170600Z

4,000개 이상의 공항 관측 자료 및 예보 (METAR 및 TAF 보고).

지도상에서 검색 가능한 기상관측소가 노란 점과 빨간 점으로 표시되어 있습니다.

기상관측소 명을 보려면 표시 위로 마우스를 이동하세요.

날씨 관측과 예보를 보려면 클릭하세요.

지도 변경 : 확대하려면 엑스 표시가 있는 녹색 버튼, 축소하려면 빼기 표시가 있는 녹색 버튼, 다음 페이지의 지도를 보려면 녹색 화살표를 클릭하세요.


METAR-TAF: